EBCI/CRL METAR and TAF weather

Enter ICAO airport designator
Station Type Date Time Source
EBCI METAR 2021/07/29 19:20 UTC NOAA

EBCI 291920Z 24006KT 9999 FEW046 18/09 Q1013 NOSIG


Station Type Date Time Source
EBCI Decoded METAR 2021/07/29 19:20 UTC NOAA

Charleroi / Gosselies, Belgium (EBCI) 50-28N 004-27E 192M
Jul 29, 2021 - 03:20 PM EDT / 2021.07.29 1920 UTC
Wind: from the WSW (240 degrees) at 7 MPH (6 KT):0
Visibility: greater than 7 mile(s):0
Sky conditions: mostly clear
Temperature: 64 F (18 C)
Dew Point: 48 F (9 C)
Relative Humidity: 55%
Pressure (altimeter): 29.91 in. Hg (1013 hPa)
ob: EBCI 291920Z 24006KT 9999 FEW046 18/09 Q1013 NOSIG
cycle: 19

Station Type Date Time Source
EBCI TAF 2021/07/29 18:27 UTC NOAA

TAF EBCI 291700Z 2918/3024 23010KT CAVOK
BECMG 2923/3001 17006KT
BECMG 3010/3012 23012KT

Example: see airport list